East Dereham, United Kingdom
Current Conditions -  °F | °C
As of 5:50 PM on Monday 22 Dec 2014 (Local Time) from EGSH Reporting Station
Few Clouds Few Clouds  
Wind Chill: 54°   Ceiling: Unl
Heat Index: 54°   Visibility: 6mi
Dew Point: 48°   Wind: 25mph
Humidity: 82%   Direction: 240°WSW
Pressure: 29.88"   Gusts: NA
Location:  52.68°N, 0.93°E
Report Text: EGSH 221750Z 24022KT 9999 FEW022 12/09 Q1012 NOSIG
Loading
Personal Weather Stations






























Interactive Weather Map New forecast layout! Learn more

10-Day Weather Forecast

Advertisements
Track Severe Weather on mobile